Time;durP1;ratioP1;P1;durP2;ratioP2;P2;SDS_P1;SDS_P2;PMS_P1;PMS_P2;Temp;Humidity;BMP_temperature;BMP_pressure;BME280_temperature;BME280_humidity;BME280_pressure;Samples;Min_cycle;Max_cycle;Signal;HPM_P1;HPM_P2
2021/09/08 00:00:43;;;;;;;15.05;9.90;;;21.40;78.60;;;;;;5068846;28;20028;-85
2021/09/08 00:03:09;;;;;;;13.57;10.25;;;21.40;78.70;;;;;;5073228;28;20038;-84
2021/09/08 00:05:35;;;;;;;13.07;10.30;;;21.40;78.90;;;;;;5036899;28;20376;-85
2021/09/08 00:08:01;;;;;;;13.95;10.30;;;21.30;78.90;;;;;;5048956;28;20038;-85
2021/09/08 00:10:26;;;;;;;12.57;9.90;;;21.30;78.80;;;;;;5044237;28;20024;-84
2021/09/08 00:12:52;;;;;;;12.15;9.05;;;21.30;78.90;;;;;;5066279;28;20032;-84
2021/09/08 00:15:18;;;;;;;12.93;10.13;;;21.30;79.00;;;;;;5087617;28;20028;-84
2021/09/08 00:17:44;;;;;;;12.73;10.23;;;21.20;79.00;;;;;;5051587;28;20016;-85
2021/09/08 00:20:11;;;;;;;13.00;10.18;;;21.20;79.10;;;;;;5081458;28;20026;-84
2021/09/08 00:22:38;;;;;;;12.70;9.50;;;21.10;79.10;;;;;;5077910;28;20029;-84
2021/09/08 00:25:06;;;;;;;12.63;10.15;;;21.10;79.30;;;;;;5055917;28;20499;-84
2021/09/08 00:27:31;;;;;;;14.15;10.15;;;21.10;79.40;;;;;;5092374;28;20028;-83
2021/09/08 00:29:57;;;;;;;12.40;9.68;;;21.10;79.60;;;;;;5055176;28;20013;-86
2021/09/08 00:32:23;;;;;;;13.25;10.35;;;21.00;79.50;;;;;;5063081;28;20004;-85
2021/09/08 00:34:48;;;;;;;13.10;10.20;;;21.00;79.50;;;;;;5077093;28;20029;-87
2021/09/08 00:37:14;;;;;;;12.70;10.27;;;21.00;79.50;;;;;;5062967;28;20076;-83
2021/09/08 00:39:41;;;;;;;13.40;10.15;;;21.00;79.60;;;;;;5077621;28;20039;-89
2021/09/08 00:42:15;;;;;;;17.08;10.43;;;21.00;79.50;;;;;;5085491;28;20044;-86
2021/09/08 00:44:42;;;;;;;16.30;10.40;;;21.00;79.60;;;;;;5116282;28;20089;-91
2021/09/08 00:47:14;;;;;;;13.23;10.30;;;21.00;79.50;;;;;;5088124;28;20031;-84
2021/09/08 00:49:41;;;;;;;14.52;10.35;;;20.90;79.40;;;;;;5070093;28;20039;-86
2021/09/08 00:52:10;;;;;;;14.82;10.73;;;20.90;79.50;;;;;;5057531;28;20082;-84
2021/09/08 00:54:36;;;;;;;13.75;9.90;;;20.90;79.70;;;;;;5067102;28;20020;-84
2021/09/08 00:57:04;;;;;;;14.45;10.27;;;20.90;79.60;;;;;;5061742;28;20553;-83
2021/09/08 00:59:32;;;;;;;14.50;10.38;;;20.80;79.60;;;;;;5093930;28;20046;-84
2021/09/08 01:02:00;;;;;;;14.20;10.82;;;20.80;79.70;;;;;;5060629;28;20460;-83
2021/09/08 01:04:26;;;;;;;14.90;10.40;;;20.70;79.80;;;;;;5082468;28;20111;-84
2021/09/08 01:06:52;;;;;;;13.48;10.18;;;20.70;79.80;;;;;;5096848;28;20056;-84
2021/09/08 01:09:18;;;;;;;14.10;10.30;;;20.70;79.90;;;;;;5068235;28;20024;-85
2021/09/08 01:11:43;;;;;;;14.30;11.18;;;20.70;79.90;;;;;;5088615;28;20096;-95
2021/09/08 01:14:09;;;;;;;15.32;10.85;;;20.70;79.90;;;;;;5070900;28;20016;-84
2021/09/08 01:16:35;;;;;;;13.10;10.15;;;20.70;79.70;;;;;;5096561;28;20033;-84
2021/09/08 01:19:01;;;;;;;12.80;10.60;;;20.60;79.70;;;;;;5089569;28;20040;-87
2021/09/08 01:21:26;;;;;;;15.40;10.85;;;20.60;79.90;;;;;;5078543;28;20088;-87
2021/09/08 01:23:52;;;;;;;14.07;10.35;;;20.60;79.90;;;;;;5078566;28;20453;-84
2021/09/08 01:26:18;;;;;;;13.55;10.60;;;20.60;79.90;;;;;;5060999;28;20022;-83
2021/09/08 01:28:43;;;;;;;14.68;11.10;;;20.60;80.00;;;;;;5058057;28;20062;-89
2021/09/08 01:31:09;;;;;;;12.23;10.32;;;20.60;79.90;;;;;;5074603;28;20036;-82
2021/09/08 01:33:35;;;;;;;15.50;10.93;;;20.50;80.20;;;;;;5057261;28;20035;-81
2021/09/08 01:36:01;;;;;;;13.85;10.50;;;20.50;80.20;;;;;;5069010;28;20058;-82
2021/09/08 01:38:27;;;;;;;13.93;10.35;;;20.50;80.20;;;;;;5054784;28;20024;-81
2021/09/08 01:40:53;;;;;;;13.35;10.48;;;20.50;80.30;;;;;;5058103;28;20060;-82
2021/09/08 01:43:26;;;;;;;15.23;10.82;;;20.50;80.30;;;;;;5064288;28;20025;-82
2021/09/08 01:45:52;;;;;;;14.32;11.05;;;20.40;80.30;;;;;;5072302;28;20024;-82
2021/09/08 01:48:18;;;;;;;14.43;11.13;;;20.40;80.40;;;;;;5093276;28;20028;-81
2021/09/08 01:50:44;;;;;;;18.23;12.10;;;20.30;81.10;;;;;;5056193;28;20035;-83
2021/09/08 01:53:09;;;;;;;14.70;11.77;;;20.30;81.20;;;;;;5057683;28;20081;-82
2021/09/08 01:55:35;;;;;;;15.65;11.75;;;20.30;80.80;;;;;;5061377;28;20074;-81
2021/09/08 01:58:01;;;;;;;14.48;11.75;;;20.30;80.80;;;;;;5059762;28;20388;-82
2021/09/08 02:00:26;;;;;;;15.98;11.75;;;20.30;80.70;;;;;;5054634;28;20025;-82
2021/09/08 02:02:52;;;;;;;17.05;11.60;;;20.30;80.80;;;;;;5089760;28;20032;-84
2021/09/08 02:05:18;;;;;;;16.02;12.55;;;20.20;81.20;;;;;;5093557;28;20111;-84
2021/09/08 02:07:44;;;;;;;15.18;11.95;;;20.20;80.80;;;;;;5077137;28;20023;-85
2021/09/08 02:10:11;;;;;;;16.23;11.60;;;20.20;80.80;;;;;;5071062;28;20031;-83
2021/09/08 02:12:38;;;;;;;17.17;12.73;;;20.10;80.90;;;;;;5058018;28;20029;-84
2021/09/08 02:15:05;;;;;;;17.77;12.88;;;20.10;80.80;;;;;;5080874;28;20028;-84
2021/09/08 02:17:31;;;;;;;15.77;12.70;;;20.10;80.90;;;;;;5066142;28;20066;-83
2021/09/08 02:19:57;;;;;;;16.45;13.07;;;20.10;80.90;;;;;;5074486;28;20102;-84
2021/09/08 02:22:23;;;;;;;18.25;12.70;;;20.10;81.00;;;;;;5095038;28;20024;-85
2021/09/08 02:24:49;;;;;;;14.68;12.30;;;20.00;80.90;;;;;;5070422;28;20055;-87
2021/09/08 02:27:14;;;;;;;16.48;13.75;;;20.00;80.90;;;;;;5077402;28;20470;-84
2021/09/08 02:29:40;;;;;;;17.20;12.70;;;20.00;81.00;;;;;;5060335;28;20034;-84
2021/09/08 02:32:06;;;;;;;16.95;12.88;;;20.00;81.20;;;;;;5063121;28;20413;-84
2021/09/08 02:34:32;;;;;;;19.52;13.93;;;19.90;81.20;;;;;;5095576;28;20085;-85
2021/09/08 02:36:58;;;;;;;18.23;13.18;;;19.90;81.20;;;;;;5056924;28;20036;-84
2021/09/08 02:39:24;;;;;;;18.83;12.70;;;19.90;81.20;;;;;;5057616;28;20094;-84
2021/09/08 02:41:50;;;;;;;16.40;13.52;;;19.90;80.90;;;;;;5071515;28;20480;-87
2021/09/08 02:44:15;;;;;;;17.27;13.35;;;19.90;81.10;;;;;;5070774;28;20051;-84
2021/09/08 02:46:41;;;;;;;17.83;13.35;;;19.80;81.20;;;;;;5040769;28;20139;-84
2021/09/08 02:49:06;;;;;;;17.65;13.60;;;19.80;82.00;;;;;;5059009;28;20012;-83
2021/09/08 02:51:32;;;;;;;17.88;14.23;;;19.80;81.40;;;;;;5060526;28;20059;-84
2021/09/08 02:53:58;;;;;;;20.65;13.65;;;19.80;81.30;;;;;;5057597;28;20024;-84
2021/09/08 02:56:23;;;;;;;16.13;12.65;;;19.70;81.10;;;;;;5049257;28;20092;-84
2021/09/08 02:58:50;;;;;;;16.42;13.00;;;19.70;81.30;;;;;;5062798;28;20115;-85
2021/09/08 03:01:16;;;;;;;18.15;13.52;;;19.70;81.20;;;;;;5070190;28;20036;-83
2021/09/08 03:03:41;;;;;;;15.90;13.02;;;19.70;81.60;;;;;;5052784;28;20472;-84
2021/09/08 03:06:07;;;;;;;16.80;13.30;;;19.60;81.30;;;;;;5072091;28;20392;-86
2021/09/08 03:08:33;;;;;;;17.73;12.68;;;19.60;81.60;;;;;;5074915;28;20104;-85
2021/09/08 03:10:58;;;;;;;18.42;13.15;;;19.60;81.70;;;;;;5056765;28;20054;-85
2021/09/08 03:13:24;;;;;;;19.13;12.98;;;19.60;81.90;;;;;;5032388;28;20111;-84
2021/09/08 03:15:50;;;;;;;15.18;12.18;;;19.50;82.00;;;;;;5094663;28;20028;-85
2021/09/08 03:18:15;;;;;;;16.85;12.98;;;19.50;82.20;;;;;;5070154;28;20381;-84
2021/09/08 03:20:41;;;;;;;16.80;12.55;;;19.50;82.10;;;;;;5056885;28;20560;-85
2021/09/08 03:23:07;;;;;;;16.80;12.20;;;19.50;82.20;;;;;;5070249;28;20039;-84
2021/09/08 03:25:33;;;;;;;18.23;11.98;;;19.40;82.20;;;;;;5074216;28;20095;-84
2021/09/08 03:27:58;;;;;;;15.52;12.70;;;19.40;82.40;;;;;;5065793;28;20115;-84
2021/09/08 03:30:24;;;;;;;16.45;12.32;;;19.40;82.50;;;;;;5056264;28;20021;-84
2021/09/08 03:32:50;;;;;;;16.95;12.50;;;19.40;82.40;;;;;;5070295;28;20111;-84
2021/09/08 03:35:16;;;;;;;17.52;13.27;;;19.30;82.60;;;;;;5062811;28;20024;-84
2021/09/08 03:37:42;;;;;;;15.25;12.10;;;19.30;82.80;;;;;;5059938;28;20063;-83
2021/09/08 03:40:09;;;;;;;16.83;12.50;;;19.30;83.00;;;;;;5069924;28;20384;-84
2021/09/08 03:42:40;;;;;;;16.77;12.13;;;19.20;82.80;;;;;;5085104;28;20024;-84
2021/09/08 03:45:07;;;;;;;17.70;12.13;;;19.20;82.90;;;;;;5060065;28;20021;-84
2021/09/08 03:47:33;;;;;;;15.57;12.15;;;19.20;83.30;;;;;;5072434;28;20029;-84
2021/09/08 03:49:58;;;;;;;15.32;12.13;;;19.20;83.10;;;;;;5056061;28;20115;-84
2021/09/08 03:52:24;;;;;;;19.35;12.02;;;19.20;83.20;;;;;;5053525;28;20032;-83
2021/09/08 03:54:49;;;;;;;18.25;13.02;;;19.20;83.20;;;;;;5056185;28;20040;-84
2021/09/08 03:57:15;;;;;;;16.60;12.43;;;19.10;83.40;;;;;;5089843;28;20141;-85
2021/09/08 03:59:41;;;;;;;15.75;12.20;;;19.10;83.50;;;;;;5068648;28;20090;-84
2021/09/08 04:02:06;;;;;;;16.40;12.43;;;19.10;83.60;;;;;;5056558;28;20033;-85
2021/09/08 04:04:32;;;;;;;18.77;12.90;;;19.00;83.60;;;;;;5076079;28;20386;-84
2021/09/08 04:06:58;;;;;;;19.17;13.02;;;19.00;83.60;;;;;;5059954;28;20524;-86
2021/09/08 04:09:23;;;;;;;16.13;12.65;;;19.00;83.80;;;;;;5056543;28;20021;-83
2021/09/08 04:11:49;;;;;;;18.50;13.40;;;19.00;83.90;;;;;;5044634;28;20033;-86
2021/09/08 04:14:15;;;;;;;17.38;11.88;;;19.00;83.90;;;;;;5077967;28;20016;-90
2021/09/08 04:16:40;;;;;;;16.08;12.85;;;19.00;84.10;;;;;;5084574;28;20016;-87
2021/09/08 04:19:06;;;;;;;16.38;13.05;;;18.90;84.10;;;;;;5084027;28;20016;-86
2021/09/08 04:21:32;;;;;;;17.65;12.48;;;18.90;84.20;;;;;;5098717;28;20025;-84
2021/09/08 04:23:59;;;;;;;19.08;12.80;;;18.90;84.20;;;;;;5075899;28;20008;-84
2021/09/08 04:26:25;;;;;;;16.20;11.93;;;18.90;84.40;;;;;;5114236;28;20027;-88
2021/09/08 04:28:50;;;;;;;16.40;12.68;;;18.80;84.40;;;;;;5073240;28;20018;-88
2021/09/08 04:31:16;;;;;;;17.27;12.63;;;18.80;84.50;;;;;;5077812;28;20032;-84
2021/09/08 04:33:43;;;;;;;16.38;12.32;;;18.80;84.50;;;;;;5060468;28;20031;-85
2021/09/08 04:36:09;;;;;;;15.18;11.88;;;18.80;84.60;;;;;;5062879;28;20453;-85
2021/09/08 04:38:37;;;;;;;16.52;12.18;;;18.80;84.70;;;;;;5088756;28;20035;-83
2021/09/08 04:41:03;;;;;;;16.30;12.85;;;18.80;84.70;;;;;;5068163;28;20097;-84
2021/09/08 04:43:29;;;;;;;16.23;12.25;;;18.70;84.70;;;;;;5076095;28;20036;-85
2021/09/08 04:45:55;;;;;;;18.13;13.25;;;18.70;84.70;;;;;;5039988;28;20035;-85
2021/09/08 04:48:20;;;;;;;17.88;13.15;;;18.70;84.70;;;;;;5055762;28;20031;-84
2021/09/08 04:50:46;;;;;;;18.17;13.45;;;18.70;84.80;;;;;;5055922;28;20119;-83
2021/09/08 04:53:12;;;;;;;16.90;12.63;;;18.70;84.90;;;;;;5031349;28;20025;-84
2021/09/08 04:55:37;;;;;;;17.23;13.30;;;18.70;85.00;;;;;;5035239;28;20025;-84
2021/09/08 04:58:03;;;;;;;16.50;12.77;;;18.60;84.90;;;;;;5076555;28;20092;-93
2021/09/08 05:00:29;;;;;;;17.85;12.80;;;18.60;85.10;;;;;;5084444;28;20047;-85
2021/09/08 05:02:55;;;;;;;17.20;13.88;;;18.60;85.10;;;;;;5070457;28;20047;-85
2021/09/08 05:05:20;;;;;;;19.23;13.95;;;18.60;85.10;;;;;;5065494;28;20028;-87
2021/09/08 05:07:46;;;;;;;16.48;12.82;;;18.60;85.00;;;;;;5110143;28;20434;-84
2021/09/08 05:10:12;;;;;;;17.88;13.93;;;18.50;85.00;;;;;;5063890;28;20024;-84
2021/09/08 05:12:37;;;;;;;17.17;13.48;;;18.60;85.50;;;;;;5073462;28;20035;-84
2021/09/08 05:15:06;;;;;;;19.92;13.88;;;18.50;85.20;;;;;;5072873;28;20054;-84
2021/09/08 05:17:32;;;;;;;16.70;13.18;;;18.50;85.20;;;;;;5053415;28;20492;-84
2021/09/08 05:19:58;;;;;;;17.48;12.52;;;18.50;85.30;;;;;;5042900;28;20024;-84
2021/09/08 05:22:23;;;;;;;17.88;13.75;;;18.50;85.40;;;;;;5046915;28;20033;-84
2021/09/08 05:24:49;;;;;;;16.60;13.85;;;18.50;85.50;;;;;;5039105;28;20029;-84
2021/09/08 05:27:15;;;;;;;18.30;14.25;;;18.40;85.50;;;;;;5064943;28;20460;-84
2021/09/08 05:29:43;;;;;;;18.10;13.57;;;18.40;85.60;;;;;;5074984;28;20111;-89
2021/09/08 05:32:09;;;;;;;18.58;13.50;;;18.40;85.70;;;;;;5097481;28;20020;-90
2021/09/08 05:34:35;;;;;;;16.70;13.18;;;18.40;85.80;;;;;;5077987;28;20635;-87
2021/09/08 05:37:00;;;;;;;18.20;13.98;;;18.40;85.90;;;;;;5054095;28;20140;-87
2021/09/08 05:39:27;;;;;;;18.02;14.27;;;18.40;86.00;;;;;;5079581;28;20474;-88
2021/09/08 05:41:53;;;;;;;18.42;12.98;;;18.40;86.10;;;;;;5060041;28;20143;-84
2021/09/08 05:44:18;;;;;;;22.85;12.98;;;18.40;86.00;;;;;;5037285;28;20529;-86
2021/09/08 05:46:44;;;;;;;16.85;12.90;;;18.40;86.00;;;;;;5024183;28;20087;-86
2021/09/08 05:49:11;;;;;;;15.70;12.73;;;18.40;86.10;;;;;;5037081;28;20058;-84
2021/09/08 05:51:38;;;;;;;20.77;13.70;;;18.30;86.30;;;;;;5067634;28;20070;-87
2021/09/08 05:54:05;;;;;;;18.48;13.63;;;18.30;86.30;;;;;;5053939;28;20025;-86
2021/09/08 05:56:31;;;;;;;16.83;13.02;;;18.30;86.40;;;;;;5053664;28;20488;-85
2021/09/08 05:58:57;;;;;;;17.67;13.80;;;18.30;86.50;;;;;;5053161;28;20057;-86
2021/09/08 06:01:22;;;;;;;17.63;13.82;;;18.30;86.60;;;;;;5053901;28;20094;-85
2021/09/08 06:03:48;;;;;;;14.88;12.48;;;18.30;86.80;;;;;;5070259;28;20542;-83
2021/09/08 06:06:13;;;;;;;17.60;13.50;;;18.30;86.90;;;;;;5057595;28;20020;-84
2021/09/08 06:08:39;;;;;;;18.80;13.05;;;18.30;86.90;;;;;;5044163;28;20127;-85
2021/09/08 06:11:05;;;;;;;17.73;13.63;;;18.30;86.90;;;;;;5069683;28;20491;-83
2021/09/08 06:13:30;;;;;;;16.58;12.85;;;18.30;86.80;;;;;;5067057;28;20191;-85
2021/09/08 06:15:56;;;;;;;16.88;13.15;;;18.30;86.80;;;;;;5075185;28;20021;-85
2021/09/08 06:18:22;;;;;;;17.00;13.25;;;18.30;86.70;;;;;;5050107;28;20061;-84
2021/09/08 06:20:47;;;;;;;16.65;13.10;;;18.30;86.80;;;;;;5036995;28;20043;-84
2021/09/08 06:23:13;;;;;;;17.08;13.45;;;18.30;86.90;;;;;;5071897;28;20044;-85
2021/09/08 06:25:39;;;;;;;17.77;12.82;;;18.40;87.00;;;;;;5055319;28;20016;-84
2021/09/08 06:28:04;;;;;;;15.60;12.45;;;18.40;87.30;;;;;;5060005;28;20380;-84
2021/09/08 06:30:30;;;;;;;18.02;12.68;;;18.40;87.20;;;;;;5073822;28;20039;-84
2021/09/08 06:32:55;;;;;;;18.17;13.00;;;18.40;87.10;;;;;;5074938;28;20041;-84
2021/09/08 06:35:21;;;;;;;16.02;12.82;;;18.50;87.40;;;;;;5048593;28;20025;-84
2021/09/08 06:37:47;;;;;;;15.70;12.02;;;18.50;87.40;;;;;;5068973;28;20469;-84
2021/09/08 06:40:14;;;;;;;16.42;12.27;;;18.40;87.30;;;;;;5059296;28;20052;-91
2021/09/08 06:42:40;;;;;;;16.17;12.63;;;18.50;87.40;;;;;;5065181;28;20090;-84
2021/09/08 06:45:06;;;;;;;17.08;13.02;;;18.50;87.30;;;;;;5071235;28;20028;-85
2021/09/08 06:47:32;;;;;;;19.20;12.60;;;18.50;87.20;;;;;;5086627;28;20032;-85
2021/09/08 06:49:57;;;;;;;15.82;12.38;;;18.60;87.30;;;;;;5046877;28;20040;-83
2021/09/08 06:52:23;;;;;;;17.75;12.20;;;18.60;87.40;;;;;;5046530;28;20365;-84
2021/09/08 06:54:49;;;;;;;17.00;12.65;;;18.60;87.40;;;;;;5048214;28;20033;-83
2021/09/08 06:57:16;;;;;;;15.65;11.65;;;18.60;87.50;;;;;;5083584;28;20020;-84
2021/09/08 06:59:43;;;;;;;14.10;11.30;;;18.60;87.40;;;;;;5064426;28;20051;-83
2021/09/08 07:02:10;;;;;;;15.82;11.48;;;18.60;87.40;;;;;;5040430;28;20036;-84
2021/09/08 07:04:36;;;;;;;15.82;12.48;;;18.70;87.50;;;;;;5070161;28;20059;-84
2021/09/08 07:07:02;;;;;;;17.90;12.88;;;18.70;87.40;;;;;;5061979;28;20032;-85
2021/09/08 07:09:28;;;;;;;16.35;11.23;;;18.70;87.20;;;;;;5077139;28;20103;-84
2021/09/08 07:11:54;;;;;;;13.63;10.55;;;18.70;87.10;;;;;;5069111;28;20063;-82
2021/09/08 07:14:20;;;;;;;14.50;11.00;;;18.80;87.80;;;;;;5051161;28;20107;-83
2021/09/08 07:16:46;;;;;;;14.70;11.90;;;18.70;87.20;;;;;;5072298;28;20020;-83
2021/09/08 07:19:12;;;;;;;14.82;11.18;;;18.80;87.20;;;;;;5054307;28;20024;-82
2021/09/08 07:21:38;;;;;;;14.60;11.40;;;18.80;87.20;;;;;;5056704;28;20420;-84
2021/09/08 07:24:04;;;;;;;13.80;11.10;;;18.90;87.30;;;;;;5074904;28;20432;-83
2021/09/08 07:26:32;;;;;;;16.10;11.13;;;18.90;87.30;;;;;;5070097;28;20032;-85
2021/09/08 07:29:03;;;;;;;14.48;10.68;;;18.90;87.20;;;;;;5071953;28;20051;-84
2021/09/08 07:31:29;;;;;;;12.73;9.82;;;18.90;87.30;;;;;;5063712;28;20078;-84
2021/09/08 07:33:55;;;;;;;13.02;10.35;;;19.00;87.30;;;;;;5070614;28;20031;-83
2021/09/08 07:36:21;;;;;;;16.23;11.27;;;19.10;87.50;;;;;;5091847;28;20024;-84
2021/09/08 07:38:47;;;;;;;15.25;11.68;;;19.10;87.60;;;;;;5073149;28;20016;-84
2021/09/08 07:41:14;;;;;;;13.38;10.18;;;19.10;87.50;;;;;;5045419;28;20044;-86
2021/09/08 07:43:39;;;;;;;13.45;10.32;;;19.20;87.40;;;;;;5075346;28;20475;-87
2021/09/08 07:46:06;;;;;;;14.45;10.32;;;19.20;87.50;;;;;;5058485;28;20111;-84
2021/09/08 07:48:32;;;;;;;13.00;9.77;;;19.20;87.50;;;;;;5092112;28;20122;-85
2021/09/08 07:50:58;;;;;;;12.07;8.98;;;19.30;87.70;;;;;;5046564;28;20579;-83
2021/09/08 07:53:24;;;;;;;11.93;9.55;;;19.40;87.80;;;;;;5038486;28;20088;-84
2021/09/08 07:55:49;;;;;;;12.73;10.23;;;19.40;87.90;;;;;;5069971;28;20011;-94
2021/09/08 07:58:15;;;;;;;15.20;11.00;;;19.50;87.90;;;;;;5080838;28;20015;-94
2021/09/08 08:00:40;;;;;;;16.75;11.93;;;19.50;88.00;;;;;;5086517;28;20031;-90
2021/09/08 08:03:07;;;;;;;13.13;10.63;;;19.60;87.60;;;;;;5098230;28;20035;-93
2021/09/08 08:05:33;;;;;;;12.45;10.68;;;19.70;87.40;;;;;;5116685;28;20079;-90
2021/09/08 08:08:00;;;;;;;14.52;11.13;;;19.70;87.40;;;;;;5083775;28;20034;-90
2021/09/08 08:10:26;;;;;;;13.68;9.57;;;19.80;87.30;;;;;;5095827;28;20136;-86
2021/09/08 08:12:53;;;;;;;12.00;9.35;;;19.80;87.40;;;;;;5088326;28;20020;-84
2021/09/08 08:15:19;;;;;;;12.85;10.02;;;19.90;87.50;;;;;;5076205;28;20035;-84
2021/09/08 08:17:44;;;;;;;12.82;10.57;;;20.00;87.60;;;;;;5071813;28;20028;-84
2021/09/08 08:20:12;;;;;;;15.02;10.60;;;20.10;87.70;;;;;;5023293;28;20035;-83
2021/09/08 08:22:39;;;;;;;15.18;11.52;;;20.20;87.60;;;;;;5074619;28;20036;-85
2021/09/08 08:25:07;;;;;;;13.10;10.65;;;20.20;87.40;;;;;;5075284;28;20035;-85
2021/09/08 08:27:34;;;;;;;13.48;10.65;;;20.30;87.20;;;;;;5074266;28;20119;-85
2021/09/08 08:30:00;;;;;;;14.63;10.73;;;20.40;86.90;;;;;;5077836;28;20024;-92
2021/09/08 08:32:25;;;;;;;13.07;10.40;;;20.50;86.90;;;;;;5096557;28;20049;-92
2021/09/08 08:34:52;;;;;;;12.18;9.30;;;20.60;86.90;;;;;;5071339;28;20452;-89
2021/09/08 08:37:18;;;;;;;13.77;10.82;;;20.60;86.90;;;;;;5086404;28;20032;-89
2021/09/08 08:39:44;;;;;;;13.98;10.30;;;20.70;86.80;;;;;;5066012;28;20568;-91
2021/09/08 08:42:22;;;;;;;12.00;8.95;;;20.80;86.60;;;;;;5092200;28;20048;-93
2021/09/08 08:44:50;;;;;;;13.13;9.68;;;20.90;86.80;;;;;;5095424;28;20024;-93
2021/09/08 08:47:17;;;;;;;12.88;9.57;;;21.00;86.80;;;;;;5094833;28;20091;-92
2021/09/08 08:49:44;;;;;;;12.70;9.75;;;21.10;86.70;;;;;;5094647;28;20080;-92
2021/09/08 08:52:09;;;;;;;11.18;8.95;;;21.20;86.60;;;;;;5112507;28;20039;-91
2021/09/08 08:54:35;;;;;;;11.00;8.13;;;21.20;86.40;;;;;;5087931;28;20042;-92
2021/09/08 08:57:01;;;;;;;10.98;8.60;;;21.30;86.40;;;;;;5077689;28;20039;-88
2021/09/08 08:59:27;;;;;;;11.20;8.63;;;21.40;86.30;;;;;;5036614;28;20027;-91
2021/09/08 09:01:53;;;;;;;13.48;9.25;;;21.50;86.00;;;;;;5060263;28;20036;-90
2021/09/08 09:04:19;;;;;;;11.75;8.77;;;21.60;85.70;;;;;;5096603;28;20449;-90
2021/09/08 09:06:49;;;;;;;12.70;9.52;;;21.70;85.30;;;;;;5076805;28;20140;-88
2021/09/08 09:09:18;;;;;;;12.35;9.48;;;21.80;84.80;;;;;;5095714;28;20468;-89
2021/09/08 09:11:45;;;;;;;11.43;9.13;;;21.90;83.50;;;;;;5072992;28;20032;-89
2021/09/08 09:14:12;;;;;;;10.63;8.15;;;22.00;83.00;;;;;;5063435;28;20032;-89
2021/09/08 09:16:40;;;;;;;11.35;9.13;;;22.10;83.00;;;;;;5066766;28;20031;-90
2021/09/08 09:19:07;;;;;;;11.40;8.65;;;22.10;83.00;;;;;;5069648;28;20081;-89
2021/09/08 09:21:34;;;;;;;15.18;9.60;;;22.20;82.70;;;;;;5079698;28;20492;-84
2021/09/08 09:24:02;;;;;;;12.93;9.75;;;22.30;82.20;;;;;;5087088;28;20024;-85
2021/09/08 09:26:34;;;;;;;15.02;9.88;;;22.40;81.70;;;;;;5075589;28;20016;-86
2021/09/08 09:29:12;;;;;;;11.27;8.75;;;22.50;81.80;;;;;;5057888;28;20468;-84
2021/09/08 09:31:56;;;;;;;12.00;8.75;;;22.60;81.30;;;;;;5075727;28;20028;-84
2021/09/08 09:34:23;;;;;;;11.50;9.23;;;22.70;81.50;;;;;;5079410;28;20035;-84
2021/09/08 09:36:58;;;;;;;11.85;9.43;;;22.80;81.40;;;;;;5097383;28;20456;-84
2021/09/08 09:39:29;;;;;;;12.07;8.70;;;22.90;80.80;;;;;;5078705;28;20024;-84
2021/09/08 09:41:59;;;;;;;9.65;7.22;;;23.00;80.80;;;;;;5067585;28;20098;-86
2021/09/08 09:44:31;;;;;;;11.45;9.02;;;23.10;80.80;;;;;;5075838;28;20025;-85
2021/09/08 09:46:57;;;;;;;11.35;8.70;;;23.20;80.80;;;;;;5075838;28;20031;-85
2021/09/08 09:49:25;;;;;;;14.27;9.50;;;23.30;80.40;;;;;;5074115;28;20021;-84
2021/09/08 09:51:55;;;;;;;11.48;8.80;;;23.40;79.90;;;;;;5071606;28;20037;-86
2021/09/08 09:54:22;;;;;;;9.45;7.97;;;23.50;79.70;;;;;;5061475;28;20115;-85
2021/09/08 09:56:48;;;;;;;9.23;7.28;;;23.50;79.70;;;;;;5072888;28;20029;-86
2021/09/08 09:59:16;;;;;;;9.40;7.30;;;23.60;79.90;;;;;;5047751;28;20477;-85
2021/09/08 10:01:42;;;;;;;8.75;6.97;;;23.70;80.10;;;;;;5060926;28;20041;-86
2021/09/08 10:04:09;;;;;;;10.15;7.38;;;23.80;80.10;;;;;;5058092;28;20021;-87
2021/09/08 10:06:37;;;;;;;10.43;8.10;;;23.90;80.00;;;;;;5073888;28;20043;-84
2021/09/08 10:09:05;;;;;;;11.18;7.55;;;24.00;79.80;;;;;;5065291;28;20415;-83
2021/09/08 10:11:33;;;;;;;12.20;8.60;;;24.10;79.80;;;;;;5068318;28;20051;-83
2021/09/08 10:14:05;;;;;;;10.82;7.97;;;24.20;79.70;;;;;;5063570;28;20024;-83
2021/09/08 10:16:33;;;;;;;10.65;8.13;;;24.20;79.50;;;;;;5070666;28;20029;-85
2021/09/08 10:19:04;;;;;;;10.23;8.15;;;24.30;79.60;;;;;;5065527;28;20025;-84
2021/09/08 10:21:30;;;;;;;9.98;7.85;;;24.40;79.40;;;;;;5060326;28;20071;-86
2021/09/08 10:23:59;;;;;;;11.55;9.02;;;24.50;79.00;;;;;;5076675;28;20029;-84
2021/09/08 10:26:30;;;;;;;12.40;9.05;;;24.50;78.70;;;;;;5063577;28;20023;-84
2021/09/08 10:29:07;;;;;;;10.93;7.95;;;24.60;78.30;;;;;;5064959;28;20052;-84
2021/09/08 10:31:51;;;;;;;10.32;7.88;;;24.60;78.20;;;;;;5073798;28;20473;-84
2021/09/08 10:34:20;;;;;;;12.27;9.80;;;24.80;78.00;;;;;;5078011;28;20078;-85
2021/09/08 10:36:46;;;;;;;10.63;8.80;;;24.80;76.40;;;;;;5053945;28;20021;-85
2021/09/08 10:39:13;;;;;;;8.27;7.00;;;24.90;76.30;;;;;;5059249;28;20418;-84
2021/09/08 10:41:50;;;;;;;9.65;7.97;;;24.90;75.60;;;;;;5083101;28;20059;-83
2021/09/08 10:44:18;;;;;;;10.90;8.57;;;25.10;76.10;;;;;;5072465;28;20028;-84
2021/09/08 10:46:55;;;;;;;10.63;7.78;;;25.10;74.80;;;;;;5077011;28;20026;-84
2021/09/08 10:49:42;;;;;;;10.70;8.18;;;25.20;74.30;;;;;;5073497;28;20016;-86
2021/09/08 10:52:09;;;;;;;11.07;8.88;;;25.30;74.60;;;;;;5063698;28;20477;-83
2021/09/08 10:54:56;;;;;;;10.90;8.60;;;25.40;74.80;;;;;;5062977;28;20024;-83
2021/09/08 10:57:41;;;;;;;11.68;7.93;;;25.50;74.20;;;;;;5079498;28;20051;-80
2021/09/08 11:00:07;;;;;;;9.55;7.72;;;25.60;74.10;;;;;;5069880;28;20086;-81
2021/09/08 11:02:41;;;;;;;9.95;7.90;;;25.60;74.20;;;;;;5087851;28;20032;-81
2021/09/08 11:05:09;;;;;;;10.23;8.30;;;25.70;74.20;;;;;;5070561;28;20074;-82
2021/09/08 11:07:41;;;;;;;8.95;7.63;;;25.80;74.00;;;;;;5048972;28;20444;-84
2021/09/08 11:10:09;;;;;;;10.73;7.65;;;25.90;73.80;;;;;;5083164;28;20024;-82
2021/09/08 11:12:53;;;;;;;10.45;8.20;;;26.00;73.70;;;;;;5056273;28;20165;-90
2021/09/08 11:15:47;;;;;;;10.27;7.65;;;26.10;73.00;;;;;;5070284;28;20012;-82
2021/09/08 11:18:13;;;;;;;8.82;7.32;;;26.20;73.10;;;;;;5076887;28;20452;-79
2021/09/08 11:20:39;;;;;;;8.13;6.47;;;26.20;73.10;;;;;;5075085;28;20074;-80
2021/09/08 11:23:10;;;;;;;10.48;7.68;;;26.40;72.80;;;;;;5055094;28;20029;-80
2021/09/08 11:25:42;;;;;;;10.95;7.70;;;26.40;73.50;;;;;;5065686;28;20024;-82
2021/09/08 11:28:08;;;;;;;10.45;7.32;;;26.50;71.70;;;;;;5061423;28;20069;-78
2021/09/08 11:30:40;;;;;;;8.27;7.07;;;26.60;71.30;;;;;;5094170;28;20020;-83
2021/09/08 11:33:14;;;;;;;9.38;7.63;;;26.70;71.10;;;;;;5091497;28;20032;-84
2021/09/08 11:35:46;;;;;;;10.65;7.82;;;26.80;71.30;;;;;;5083701;28;20543;-83
2021/09/08 11:38:19;;;;;;;13.48;8.35;;;26.80;71.20;;;;;;5077945;28;20028;-89
2021/09/08 11:41:05;;;;;;;9.68;7.63;;;26.90;69.40;;;;;;5115882;28;20048;-85
2021/09/08 11:43:44;;;;;;;8.57;7.38;;;27.00;69.80;;;;;;5083537;28;20096;-88
2021/09/08 11:46:21;;;;;;;9.48;7.72;;;27.10;70.40;;;;;;5092140;28;20039;-86
2021/09/08 11:49:05;;;;;;;9.30;7.60;;;27.20;70.20;;;;;;5093091;28;20031;-86
2021/09/08 11:51:35;;;;;;;10.90;7.13;;;27.20;69.30;;;;;;5097441;28;20295;-89
2021/09/08 11:54:03;;;;;;;8.73;7.40;;;27.30;69.40;;;;;;5092369;28;20024;-83
2021/09/08 11:56:29;;;;;;;9.27;7.78;;;27.40;69.60;;;;;;5081617;28;20111;-83
2021/09/08 11:59:00;;;;;;;8.48;7.38;;;27.50;68.90;;;;;;5046532;28;20107;-82
2021/09/08 12:01:31;;;;;;;9.55;7.65;;;27.60;69.20;;;;;;5053950;28;20024;-85
2021/09/08 12:03:59;;;;;;;10.48;8.30;;;27.70;69.50;;;;;;5063214;28;20462;-86
2021/09/08 12:06:30;;;;;;;9.55;7.65;;;27.80;68.80;;;;;;5046072;28;20037;-83
2021/09/08 12:09:01;;;;;;;11.27;7.50;;;27.90;68.80;;;;;;5075566;28;20024;-83
2021/09/08 12:11:36;;;;;;;9.55;8.02;;;27.90;67.30;;;;;;5087551;28;20051;-83
2021/09/08 12:14:18;;;;;;;10.52;7.88;;;28.00;67.40;;;;;;5068319;28;20040;-84
2021/09/08 12:16:46;;;;;;;7.78;6.80;;;28.10;65.50;;;;;;5072934;28;20027;-83
2021/09/08 12:19:13;;;;;;;7.93;7.10;;;28.10;66.10;;;;;;5073082;28;20027;-83
2021/09/08 12:21:38;;;;;;;9.27;6.68;;;28.20;65.80;;;;;;5064408;28;20040;-84
2021/09/08 12:24:23;;;;;;;10.65;7.93;;;28.30;64.70;;;;;;5041146;28;20388;-83
2021/09/08 12:26:49;;;;;;;8.57;7.00;;;28.40;63.10;;;;;;5084837;28;20031;-83
2021/09/08 12:29:15;;;;;;;9.43;6.60;;;28.40;62.30;;;;;;5072701;28;20028;-84
2021/09/08 12:31:48;;;;;;;11.25;7.90;;;28.50;63.50;;;;;;5068473;28;20035;-85